sensor_id;sensor_type;location;lat;lon;timestamp;temperature;humidity
2190;DHT22;1101;51.056;7.262;2023-06-26T00:01:19;21.30;68.00
2190;DHT22;1101;51.056;7.262;2023-06-26T00:03:50;21.30;68.20
2190;DHT22;1101;51.056;7.262;2023-06-26T00:06:18;21.20;68.30
2190;DHT22;1101;51.056;7.262;2023-06-26T00:08:46;21.20;68.60
2190;DHT22;1101;51.056;7.262;2023-06-26T00:11:13;21.10;68.50
2190;DHT22;1101;51.056;7.262;2023-06-26T00:13:41;21.10;68.60
2190;DHT22;1101;51.056;7.262;2023-06-26T00:16:09;21.00;68.70
2190;DHT22;1101;51.056;7.262;2023-06-26T00:18:37;20.90;68.80
2190;DHT22;1101;51.056;7.262;2023-06-26T00:21:06;20.90;68.90
2190;DHT22;1101;51.056;7.262;2023-06-26T00:23:34;20.90;69.00
2190;DHT22;1101;51.056;7.262;2023-06-26T00:26:06;20.90;69.10
2190;DHT22;1101;51.056;7.262;2023-06-26T00:28:33;20.80;69.20
2190;DHT22;1101;51.056;7.262;2023-06-26T00:31:01;20.60;69.20
2190;DHT22;1101;51.056;7.262;2023-06-26T00:33:29;20.70;69.30
2190;DHT22;1101;51.056;7.262;2023-06-26T00:35:57;20.60;69.30
2190;DHT22;1101;51.056;7.262;2023-06-26T00:38:26;20.60;69.40
2190;DHT22;1101;51.056;7.262;2023-06-26T00:40:54;20.50;69.30
2190;DHT22;1101;51.056;7.262;2023-06-26T00:43:22;20.50;69.40
2190;DHT22;1101;51.056;7.262;2023-06-26T00:45:50;20.40;69.40
2190;DHT22;1101;51.056;7.262;2023-06-26T00:48:18;20.40;69.70
2190;DHT22;1101;51.056;7.262;2023-06-26T00:50:46;20.30;69.70
2190;DHT22;1101;51.056;7.262;2023-06-26T00:53:14;20.30;69.80
2190;DHT22;1101;51.056;7.262;2023-06-26T00:55:43;20.30;69.80
2190;DHT22;1101;51.056;7.262;2023-06-26T00:58:11;20.30;69.80
2190;DHT22;1101;51.056;7.262;2023-06-26T01:00:39;20.20;69.90
2190;DHT22;1101;51.056;7.262;2023-06-26T01:03:07;20.10;69.90
2190;DHT22;1101;51.056;7.262;2023-06-26T01:05:35;20.00;69.90
2190;DHT22;1101;51.056;7.262;2023-06-26T01:08:05;20.00;70.10
2190;DHT22;1101;51.056;7.262;2023-06-26T01:10:33;20.00;70.10
2190;DHT22;1101;51.056;7.262;2023-06-26T01:13:02;19.90;70.20
2190;DHT22;1101;51.056;7.262;2023-06-26T01:15:30;19.90;70.20
2190;DHT22;1101;51.056;7.262;2023-06-26T01:17:59;19.90;70.30
2190;DHT22;1101;51.056;7.262;2023-06-26T01:20:31;19.90;70.40
2190;DHT22;1101;51.056;7.262;2023-06-26T01:23:05;19.90;70.40
2190;DHT22;1101;51.056;7.262;2023-06-26T01:25:39;19.80;70.30
2190;DHT22;1101;51.056;7.262;2023-06-26T01:28:12;19.80;70.30
2190;DHT22;1101;51.056;7.262;2023-06-26T01:30:43;19.80;70.30
2190;DHT22;1101;51.056;7.262;2023-06-26T01:33:12;19.80;70.30
2190;DHT22;1101;51.056;7.262;2023-06-26T01:35:41;19.80;70.50
2190;DHT22;1101;51.056;7.262;2023-06-26T01:38:13;19.70;70.40
2190;DHT22;1101;51.056;7.262;2023-06-26T01:40:41;19.70;70.50
2190;DHT22;1101;51.056;7.262;2023-06-26T01:43:16;19.70;70.50
2190;DHT22;1101;51.056;7.262;2023-06-26T01:45:48;19.60;70.40
2190;DHT22;1101;51.056;7.262;2023-06-26T01:48:22;19.60;70.50
2190;DHT22;1101;51.056;7.262;2023-06-26T01:50:51;19.60;70.60
2190;DHT22;1101;51.056;7.262;2023-06-26T01:53:23;19.50;70.60
2190;DHT22;1101;51.056;7.262;2023-06-26T01:55:54;19.50;70.60
2190;DHT22;1101;51.056;7.262;2023-06-26T01:58:25;19.50;70.70
2190;DHT22;1101;51.056;7.262;2023-06-26T02:00:53;19.40;70.70
2190;DHT22;1101;51.056;7.262;2023-06-26T02:03:21;19.40;70.70
2190;DHT22;1101;51.056;7.262;2023-06-26T02:05:51;19.30;70.70
2190;DHT22;1101;51.056;7.262;2023-06-26T02:08:19;19.30;70.80
2190;DHT22;1101;51.056;7.262;2023-06-26T02:10:49;19.20;70.80
2190;DHT22;1101;51.056;7.262;2023-06-26T02:13:17;19.20;70.90
2190;DHT22;1101;51.056;7.262;2023-06-26T02:15:46;19.20;71.00
2190;DHT22;1101;51.056;7.262;2023-06-26T02:18:14;19.20;71.10
2190;DHT22;1101;51.056;7.262;2023-06-26T02:20:41;19.10;71.00
2190;DHT22;1101;51.056;7.262;2023-06-26T02:23:10;19.10;71.10
2190;DHT22;1101;51.056;7.262;2023-06-26T02:25:39;19.10;71.80
2190;DHT22;1101;51.056;7.262;2023-06-26T02:28:07;19.10;71.90
2190;DHT22;1101;51.056;7.262;2023-06-26T02:30:34;19.10;71.20
2190;DHT22;1101;51.056;7.262;2023-06-26T02:33:04;19.00;71.20
2190;DHT22;1101;51.056;7.262;2023-06-26T02:35:32;19.00;71.20
2190;DHT22;1101;51.056;7.262;2023-06-26T02:38:00;19.00;71.30
2190;DHT22;1101;51.056;7.262;2023-06-26T02:40:28;19.00;71.40
2190;DHT22;1101;51.056;7.262;2023-06-26T02:42:56;18.90;71.30
2190;DHT22;1101;51.056;7.262;2023-06-26T02:45:24;18.90;71.40
2190;DHT22;1101;51.056;7.262;2023-06-26T02:47:52;18.90;71.50
2190;DHT22;1101;51.056;7.262;2023-06-26T02:50:21;18.80;71.50
2190;DHT22;1101;51.056;7.262;2023-06-26T02:52:49;18.80;71.60
2190;DHT22;1101;51.056;7.262;2023-06-26T02:55:19;18.70;71.70
2190;DHT22;1101;51.056;7.262;2023-06-26T02:57:49;18.60;71.70
2190;DHT22;1101;51.056;7.262;2023-06-26T03:00:17;18.60;71.80
2190;DHT22;1101;51.056;7.262;2023-06-26T03:02:45;18.50;71.90
2190;DHT22;1101;51.056;7.262;2023-06-26T03:05:13;18.50;72.00
2190;DHT22;1101;51.056;7.262;2023-06-26T03:07:42;18.50;72.10
2190;DHT22;1101;51.056;7.262;2023-06-26T03:10:10;18.40;72.10
2190;DHT22;1101;51.056;7.262;2023-06-26T03:12:37;18.40;72.20
2190;DHT22;1101;51.056;7.262;2023-06-26T03:15:06;18.30;72.20
2190;DHT22;1101;51.056;7.262;2023-06-26T03:17:34;18.30;72.30
2190;DHT22;1101;51.056;7.262;2023-06-26T03:20:02;18.30;72.30
2190;DHT22;1101;51.056;7.262;2023-06-26T03:22:33;18.20;72.50
2190;DHT22;1101;51.056;7.262;2023-06-26T03:25:03;18.20;72.50
2190;DHT22;1101;51.056;7.262;2023-06-26T03:27:31;18.20;72.60
2190;DHT22;1101;51.056;7.262;2023-06-26T03:29:59;18.20;72.60
2190;DHT22;1101;51.056;7.262;2023-06-26T03:32:27;18.10;72.70
2190;DHT22;1101;51.056;7.262;2023-06-26T03:34:54;18.10;72.80
2190;DHT22;1101;51.056;7.262;2023-06-26T03:37:22;18.10;72.80
2190;DHT22;1101;51.056;7.262;2023-06-26T03:39:50;18.10;72.90
2190;DHT22;1101;51.056;7.262;2023-06-26T03:42:19;18.00;72.80
2190;DHT22;1101;51.056;7.262;2023-06-26T03:44:47;18.00;73.00
2190;DHT22;1101;51.056;7.262;2023-06-26T03:47:15;18.00;73.10
2190;DHT22;1101;51.056;7.262;2023-06-26T03:49:43;18.10;73.10
2190;DHT22;1101;51.056;7.262;2023-06-26T03:52:10;18.10;73.30
2190;DHT22;1101;51.056;7.262;2023-06-26T03:54:38;18.10;73.10
2190;DHT22;1101;51.056;7.262;2023-06-26T03:57:06;18.10;73.20
2190;DHT22;1101;51.056;7.262;2023-06-26T03:59:36;18.10;73.30
2190;DHT22;1101;51.056;7.262;2023-06-26T04:02:04;18.10;73.20
2190;DHT22;1101;51.056;7.262;2023-06-26T04:04:32;18.00;73.30
2190;DHT22;1101;51.056;7.262;2023-06-26T04:07:00;18.00;73.30
2190;DHT22;1101;51.056;7.262;2023-06-26T04:09:28;18.00;73.40
2190;DHT22;1101;51.056;7.262;2023-06-26T04:11:56;18.00;73.40
2190;DHT22;1101;51.056;7.262;2023-06-26T04:14:24;18.10;73.60
2190;DHT22;1101;51.056;7.262;2023-06-26T04:16:53;18.10;73.60
2190;DHT22;1101;51.056;7.262;2023-06-26T04:19:22;18.10;73.70
2190;DHT22;1101;51.056;7.262;2023-06-26T04:21:50;18.20;73.90
2190;DHT22;1101;51.056;7.262;2023-06-26T04:24:17;18.20;74.20
2190;DHT22;1101;51.056;7.262;2023-06-26T04:26:45;18.30;74.40
2190;DHT22;1101;51.056;7.262;2023-06-26T04:29:13;18.40;74.50
2190;DHT22;1101;51.056;7.262;2023-06-26T04:31:41;18.50;74.60
2190;DHT22;1101;51.056;7.262;2023-06-26T04:34:14;18.50;74.40
2190;DHT22;1101;51.056;7.262;2023-06-26T04:36:42;18.60;74.50
2190;DHT22;1101;51.056;7.262;2023-06-26T04:39:14;18.70;74.40
2190;DHT22;1101;51.056;7.262;2023-06-26T04:41:44;18.80;74.40
2190;DHT22;1101;51.056;7.262;2023-06-26T04:44:12;18.80;74.30
2190;DHT22;1101;51.056;7.262;2023-06-26T04:46:40;18.90;74.40
2190;DHT22;1101;51.056;7.262;2023-06-26T04:49:08;18.90;74.20
2190;DHT22;1101;51.056;7.262;2023-06-26T04:51:37;19.00;74.20
2190;DHT22;1101;51.056;7.262;2023-06-26T04:54:07;19.00;74.30
2190;DHT22;1101;51.056;7.262;2023-06-26T04:56:35;19.10;74.40
2190;DHT22;1101;51.056;7.262;2023-06-26T04:59:03;19.10;74.40
2190;DHT22;1101;51.056;7.262;2023-06-26T05:01:31;19.20;74.40
2190;DHT22;1101;51.056;7.262;2023-06-26T05:03:59;19.20;74.30
2190;DHT22;1101;51.056;7.262;2023-06-26T05:06:27;19.30;74.30
2190;DHT22;1101;51.056;7.262;2023-06-26T05:08:56;19.40;74.30
2190;DHT22;1101;51.056;7.262;2023-06-26T05:11:24;19.40;74.30
2190;DHT22;1101;51.056;7.262;2023-06-26T05:13:52;19.50;74.40
2190;DHT22;1101;51.056;7.262;2023-06-26T05:16:20;19.50;74.20
2190;DHT22;1101;51.056;7.262;2023-06-26T05:18:47;19.60;74.30
2190;DHT22;1101;51.056;7.262;2023-06-26T05:21:16;19.60;74.30
2190;DHT22;1101;51.056;7.262;2023-06-26T05:23:45;19.80;74.40
2190;DHT22;1101;51.056;7.262;2023-06-26T05:26:16;19.80;74.30
2190;DHT22;1101;51.056;7.262;2023-06-26T05:28:44;19.90;74.50
2190;DHT22;1101;51.056;7.262;2023-06-26T05:31:15;20.00;74.30
2190;DHT22;1101;51.056;7.262;2023-06-26T05:33:44;20.00;74.20
2190;DHT22;1101;51.056;7.262;2023-06-26T05:36:13;20.10;74.50
2190;DHT22;1101;51.056;7.262;2023-06-26T05:38:44;20.20;74.30
2190;DHT22;1101;51.056;7.262;2023-06-26T05:41:12;20.30;74.10
2190;DHT22;1101;51.056;7.262;2023-06-26T05:43:41;20.40;74.00
2190;DHT22;1101;51.056;7.262;2023-06-26T05:46:09;20.50;73.90
2190;DHT22;1101;51.056;7.262;2023-06-26T05:48:37;20.60;73.80
2190;DHT22;1101;51.056;7.262;2023-06-26T05:51:05;20.70;73.90
2190;DHT22;1101;51.056;7.262;2023-06-26T05:53:34;20.80;74.00
2190;DHT22;1101;51.056;7.262;2023-06-26T05:56:02;20.80;73.90
2190;DHT22;1101;51.056;7.262;2023-06-26T05:58:30;20.90;73.80
2190;DHT22;1101;51.056;7.262;2023-06-26T06:00:59;20.90;73.70
2190;DHT22;1101;51.056;7.262;2023-06-26T06:03:27;20.90;74.20
2190;DHT22;1101;51.056;7.262;2023-06-26T06:05:55;20.90;74.80
2190;DHT22;1101;51.056;7.262;2023-06-26T06:08:22;20.80;74.70
2190;DHT22;1101;51.056;7.262;2023-06-26T06:10:50;20.80;74.40
2190;DHT22;1101;51.056;7.262;2023-06-26T06:13:18;20.80;74.60
2190;DHT22;1101;51.056;7.262;2023-06-26T06:15:46;20.90;74.50
2190;DHT22;1101;51.056;7.262;2023-06-26T06:18:15;20.90;74.20
2190;DHT22;1101;51.056;7.262;2023-06-26T06:20:43;21.00;74.20
2190;DHT22;1101;51.056;7.262;2023-06-26T06:23:10;21.20;74.60
2190;DHT22;1101;51.056;7.262;2023-06-26T06:25:38;21.20;74.00
2190;DHT22;1101;51.056;7.262;2023-06-26T06:28:06;21.20;74.00
2190;DHT22;1101;51.056;7.262;2023-06-26T06:30:34;21.20;74.40
2190;DHT22;1101;51.056;7.262;2023-06-26T06:33:11;21.20;74.50
2190;DHT22;1101;51.056;7.262;2023-06-26T06:35:41;21.10;74.80
2190;DHT22;1101;51.056;7.262;2023-06-26T06:38:08;21.10;74.50
2190;DHT22;1101;51.056;7.262;2023-06-26T06:40:36;21.20;74.40
2190;DHT22;1101;51.056;7.262;2023-06-26T06:43:05;21.30;74.20
2190;DHT22;1101;51.056;7.262;2023-06-26T06:45:32;21.40;74.20
2190;DHT22;1101;51.056;7.262;2023-06-26T06:48:00;21.40;74.20
2190;DHT22;1101;51.056;7.262;2023-06-26T06:50:28;21.40;74.00
2190;DHT22;1101;51.056;7.262;2023-06-26T06:52:57;21.50;74.10
2190;DHT22;1101;51.056;7.262;2023-06-26T06:55:25;21.60;74.10
2190;DHT22;1101;51.056;7.262;2023-06-26T06:57:53;21.70;73.80
2190;DHT22;1101;51.056;7.262;2023-06-26T07:00:21;21.80;74.00
2190;DHT22;1101;51.056;7.262;2023-06-26T07:02:48;21.80;73.90
2190;DHT22;1101;51.056;7.262;2023-06-26T07:05:16;21.70;74.10
2190;DHT22;1101;51.056;7.262;2023-06-26T07:07:44;21.70;74.50
2190;DHT22;1101;51.056;7.262;2023-06-26T07:10:13;21.70;74.70
2190;DHT22;1101;51.056;7.262;2023-06-26T07:12:42;21.60;74.80
2190;DHT22;1101;51.056;7.262;2023-06-26T07:15:10;21.60;74.80
2190;DHT22;1101;51.056;7.262;2023-06-26T07:17:38;21.60;75.00
2190;DHT22;1101;51.056;7.262;2023-06-26T07:20:06;21.50;74.90
2190;DHT22;1101;51.056;7.262;2023-06-26T07:22:35;21.60;74.40
2190;DHT22;1101;51.056;7.262;2023-06-26T07:25:04;21.70;74.50
2190;DHT22;1101;51.056;7.262;2023-06-26T07:27:37;21.80;74.70
2190;DHT22;1101;51.056;7.262;2023-06-26T07:30:05;21.80;74.70
2190;DHT22;1101;51.056;7.262;2023-06-26T07:32:35;21.80;74.90
2190;DHT22;1101;51.056;7.262;2023-06-26T07:35:04;21.70;75.40
2190;DHT22;1101;51.056;7.262;2023-06-26T07:37:32;21.70;74.90
2190;DHT22;1101;51.056;7.262;2023-06-26T07:40:00;21.80;75.50
2190;DHT22;1101;51.056;7.262;2023-06-26T07:42:29;21.80;74.80
2190;DHT22;1101;51.056;7.262;2023-06-26T07:44:58;21.90;74.80
2190;DHT22;1101;51.056;7.262;2023-06-26T07:47:26;22.00;74.60
2190;DHT22;1101;51.056;7.262;2023-06-26T07:49:54;22.00;74.40
2190;DHT22;1101;51.056;7.262;2023-06-26T07:52:21;22.10;74.30
2190;DHT22;1101;51.056;7.262;2023-06-26T07:54:49;22.20;74.60
2190;DHT22;1101;51.056;7.262;2023-06-26T07:57:17;22.30;74.30
2190;DHT22;1101;51.056;7.262;2023-06-26T07:59:45;22.30;74.20
2190;DHT22;1101;51.056;7.262;2023-06-26T08:02:14;22.40;74.20
2190;DHT22;1101;51.056;7.262;2023-06-26T08:04:43;22.50;74.10
2190;DHT22;1101;51.056;7.262;2023-06-26T08:07:11;22.70;74.10
2190;DHT22;1101;51.056;7.262;2023-06-26T08:09:40;22.70;74.00
2190;DHT22;1101;51.056;7.262;2023-06-26T08:12:08;22.80;74.10
2190;DHT22;1101;51.056;7.262;2023-06-26T08:14:39;22.80;74.00
2190;DHT22;1101;51.056;7.262;2023-06-26T08:17:07;22.90;74.10
2190;DHT22;1101;51.056;7.262;2023-06-26T08:19:36;23.00;74.10
2190;DHT22;1101;51.056;7.262;2023-06-26T08:22:04;23.10;74.00
2190;DHT22;1101;51.056;7.262;2023-06-26T08:24:32;23.30;74.00
2190;DHT22;1101;51.056;7.262;2023-06-26T08:27:00;23.30;73.80
2190;DHT22;1101;51.056;7.262;2023-06-26T08:29:28;23.30;73.70
2190;DHT22;1101;51.056;7.262;2023-06-26T08:31:56;23.30;73.70
2190;DHT22;1101;51.056;7.262;2023-06-26T08:34:24;23.30;73.80
2190;DHT22;1101;51.056;7.262;2023-06-26T08:36:53;23.50;73.90
2190;DHT22;1101;51.056;7.262;2023-06-26T08:39:21;23.50;73.80
2190;DHT22;1101;51.056;7.262;2023-06-26T08:41:49;23.50;73.80
2190;DHT22;1101;51.056;7.262;2023-06-26T08:44:17;23.60;73.80
2190;DHT22;1101;51.056;7.262;2023-06-26T08:46:45;23.60;73.70
2190;DHT22;1101;51.056;7.262;2023-06-26T08:49:16;23.60;73.90
2190;DHT22;1101;51.056;7.262;2023-06-26T08:51:49;23.60;73.90
2190;DHT22;1101;51.056;7.262;2023-06-26T08:54:23;23.70;73.80
2190;DHT22;1101;51.056;7.262;2023-06-26T08:56:56;23.80;73.60
2190;DHT22;1101;51.056;7.262;2023-06-26T08:59:25;23.80;73.50
2190;DHT22;1101;51.056;7.262;2023-06-26T09:01:52;23.90;73.50
2190;DHT22;1101;51.056;7.262;2023-06-26T09:04:21;23.80;73.50
2190;DHT22;1101;51.056;7.262;2023-06-26T09:06:49;23.80;73.60
2190;DHT22;1101;51.056;7.262;2023-06-26T09:09:16;23.80;73.70
2190;DHT22;1101;51.056;7.262;2023-06-26T09:11:46;23.90;73.60
2190;DHT22;1101;51.056;7.262;2023-06-26T09:14:14;23.90;73.60
2190;DHT22;1101;51.056;7.262;2023-06-26T09:16:42;23.80;73.60
2190;DHT22;1101;51.056;7.262;2023-06-26T09:19:10;23.90;73.70
2190;DHT22;1101;51.056;7.262;2023-06-26T09:21:39;24.00;73.60
2190;DHT22;1101;51.056;7.262;2023-06-26T09:24:08;23.90;73.60
2190;DHT22;1101;51.056;7.262;2023-06-26T09:26:37;23.90;73.60
2190;DHT22;1101;51.056;7.262;2023-06-26T09:29:06;23.70;73.50
2190;DHT22;1101;51.056;7.262;2023-06-26T09:31:37;23.60;73.60
2190;DHT22;1101;51.056;7.262;2023-06-26T09:34:09;23.60;73.90
2190;DHT22;1101;51.056;7.262;2023-06-26T09:36:37;23.80;73.80
2190;DHT22;1101;51.056;7.262;2023-06-26T09:39:07;23.90;73.60
2190;DHT22;1101;51.056;7.262;2023-06-26T09:41:40;24.00;73.60
2190;DHT22;1101;51.056;7.262;2023-06-26T09:44:11;24.10;73.30
2190;DHT22;1101;51.056;7.262;2023-06-26T09:46:40;24.40;73.30
2190;DHT22;1101;51.056;7.262;2023-06-26T09:49:09;24.50;72.90
2190;DHT22;1101;51.056;7.262;2023-06-26T09:51:40;24.60;72.80
2190;DHT22;1101;51.056;7.262;2023-06-26T09:54:09;24.50;72.50
2190;DHT22;1101;51.056;7.262;2023-06-26T09:56:37;24.40;72.50
2190;DHT22;1101;51.056;7.262;2023-06-26T09:59:05;24.50;72.60
2190;DHT22;1101;51.056;7.262;2023-06-26T10:01:39;24.60;72.60
2190;DHT22;1101;51.056;7.262;2023-06-26T10:04:07;24.70;72.40
2190;DHT22;1101;51.056;7.262;2023-06-26T10:06:36;24.70;72.20
2190;DHT22;1101;51.056;7.262;2023-06-26T10:09:04;24.70;72.00
2190;DHT22;1101;51.056;7.262;2023-06-26T10:11:37;24.60;72.20
2190;DHT22;1101;51.056;7.262;2023-06-26T10:14:07;24.70;72.20
2190;DHT22;1101;51.056;7.262;2023-06-26T10:16:46;24.80;72.30
2190;DHT22;1101;51.056;7.262;2023-06-26T10:19:18;24.80;72.00
2190;DHT22;1101;51.056;7.262;2023-06-26T10:21:51;24.80;72.00
2190;DHT22;1101;51.056;7.262;2023-06-26T10:24:21;24.90;72.00
2190;DHT22;1101;51.056;7.262;2023-06-26T10:27:04;25.00;71.90
2190;DHT22;1101;51.056;7.262;2023-06-26T10:29:35;25.20;71.70
2190;DHT22;1101;51.056;7.262;2023-06-26T10:32:06;25.30;71.20
2190;DHT22;1101;51.056;7.262;2023-06-26T10:34:34;25.20;70.90
2190;DHT22;1101;51.056;7.262;2023-06-26T10:37:03;25.20;71.10
2190;DHT22;1101;51.056;7.262;2023-06-26T10:39:47;25.20;71.10
2190;DHT22;1101;51.056;7.262;2023-06-26T10:42:16;25.30;71.10
2190;DHT22;1101;51.056;7.262;2023-06-26T10:44:46;25.30;70.80
2190;DHT22;1101;51.056;7.262;2023-06-26T10:47:31;25.30;70.90
2190;DHT22;1101;51.056;7.262;2023-06-26T10:50:21;25.60;70.60
2190;DHT22;1101;51.056;7.262;2023-06-26T10:53:10;25.40;69.50
2190;DHT22;1101;51.056;7.262;2023-06-26T10:55:48;25.20;69.50
2190;DHT22;1101;51.056;7.262;2023-06-26T10:58:33;25.20;69.70
2190;DHT22;1101;51.056;7.262;2023-06-26T11:01:23;25.30;70.10
2190;DHT22;1101;51.056;7.262;2023-06-26T11:04:04;25.50;70.00
2190;DHT22;1101;51.056;7.262;2023-06-26T11:06:34;25.60;69.60
2190;DHT22;1101;51.056;7.262;2023-06-26T11:09:07;25.70;69.30
2190;DHT22;1101;51.056;7.262;2023-06-26T11:11:57;26.00;69.20
2190;DHT22;1101;51.056;7.262;2023-06-26T11:14:30;26.10;68.90
2190;DHT22;1101;51.056;7.262;2023-06-26T11:16:59;26.20;68.00
2190;DHT22;1101;51.056;7.262;2023-06-26T11:19:30;26.20;68.10
2190;DHT22;1101;51.056;7.262;2023-06-26T11:21:59;26.30;68.40
2190;DHT22;1101;51.056;7.262;2023-06-26T11:24:29;26.50;68.30
2190;DHT22;1101;51.056;7.262;2023-06-26T11:27:00;26.60;67.90
2190;DHT22;1101;51.056;7.262;2023-06-26T11:29:33;26.60;67.50
2190;DHT22;1101;51.056;7.262;2023-06-26T11:32:03;26.70;67.30
2190;DHT22;1101;51.056;7.262;2023-06-26T11:34:34;26.80;67.30
2190;DHT22;1101;51.056;7.262;2023-06-26T11:37:04;26.90;67.40
2190;DHT22;1101;51.056;7.262;2023-06-26T11:39:33;27.00;66.70
2190;DHT22;1101;51.056;7.262;2023-06-26T11:42:01;27.00;66.90
2190;DHT22;1101;51.056;7.262;2023-06-26T11:44:29;27.20;67.00
2190;DHT22;1101;51.056;7.262;2023-06-26T11:46:58;27.20;66.90
2190;DHT22;1101;51.056;7.262;2023-06-26T11:49:26;27.30;67.40
2190;DHT22;1101;51.056;7.262;2023-06-26T11:51:56;27.40;66.50
2190;DHT22;1101;51.056;7.262;2023-06-26T11:54:25;27.50;66.00
2190;DHT22;1101;51.056;7.262;2023-06-26T11:56:57;27.50;65.50
2190;DHT22;1101;51.056;7.262;2023-06-26T11:59:33;27.60;66.50
2190;DHT22;1101;51.056;7.262;2023-06-26T12:02:05;27.70;65.50
2190;DHT22;1101;51.056;7.262;2023-06-26T12:04:34;27.70;65.30
2190;DHT22;1101;51.056;7.262;2023-06-26T12:07:06;27.60;64.80
2190;DHT22;1101;51.056;7.262;2023-06-26T12:09:38;27.60;65.20
2190;DHT22;1101;51.056;7.262;2023-06-26T12:12:09;27.70;65.10
2190;DHT22;1101;51.056;7.262;2023-06-26T12:14:37;27.80;64.50
2190;DHT22;1101;51.056;7.262;2023-06-26T12:17:09;27.70;64.10
2190;DHT22;1101;51.056;7.262;2023-06-26T12:19:38;27.40;63.00
2190;DHT22;1101;51.056;7.262;2023-06-26T12:22:08;27.20;63.30
2190;DHT22;1101;51.056;7.262;2023-06-26T12:24:38;27.00;63.70
2190;DHT22;1101;51.056;7.262;2023-06-26T12:27:10;26.80;63.70
2190;DHT22;1101;51.056;7.262;2023-06-26T12:29:39;26.90;64.20
2190;DHT22;1101;51.056;7.262;2023-06-26T12:32:10;27.00;64.20
2190;DHT22;1101;51.056;7.262;2023-06-26T12:34:39;27.10;64.40
2190;DHT22;1101;51.056;7.262;2023-06-26T12:37:09;27.30;63.00
2190;DHT22;1101;51.056;7.262;2023-06-26T12:39:47;27.20;62.80
2190;DHT22;1101;51.056;7.262;2023-06-26T12:42:16;27.00;63.00
2190;DHT22;1101;51.056;7.262;2023-06-26T12:44:45;27.10;63.30
2190;DHT22;1101;51.056;7.262;2023-06-26T12:47:14;27.00;61.50
2190;DHT22;1101;51.056;7.262;2023-06-26T12:49:43;26.80;61.70
2190;DHT22;1101;51.056;7.262;2023-06-26T12:52:13;26.60;61.60
2190;DHT22;1101;51.056;7.262;2023-06-26T12:54:43;26.40;62.10
2190;DHT22;1101;51.056;7.262;2023-06-26T12:57:11;26.40;63.00
2190;DHT22;1101;51.056;7.262;2023-06-26T12:59:41;26.40;63.20
2190;DHT22;1101;51.056;7.262;2023-06-26T13:02:09;26.40;62.30
2190;DHT22;1101;51.056;7.262;2023-06-26T13:04:38;26.20;62.60
2190;DHT22;1101;51.056;7.262;2023-06-26T13:07:07;26.10;62.70
2190;DHT22;1101;51.056;7.262;2023-06-26T13:09:37;26.10;63.10
2190;DHT22;1101;51.056;7.262;2023-06-26T13:12:06;26.20;63.80
2190;DHT22;1101;51.056;7.262;2023-06-26T13:14:35;26.40;63.50
2190;DHT22;1101;51.056;7.262;2023-06-26T13:17:05;26.50;63.10
2190;DHT22;1101;51.056;7.262;2023-06-26T13:19:35;26.70;63.20
2190;DHT22;1101;51.056;7.262;2023-06-26T13:22:04;26.90;63.10
2190;DHT22;1101;51.056;7.262;2023-06-26T13:24:32;27.00;63.50
2190;DHT22;1101;51.056;7.262;2023-06-26T13:27:01;27.00;62.00
2190;DHT22;1101;51.056;7.262;2023-06-26T13:29:31;26.90;61.70
2190;DHT22;1101;51.056;7.262;2023-06-26T13:32:00;26.90;62.10
2190;DHT22;1101;51.056;7.262;2023-06-26T13:34:28;26.90;62.50
2190;DHT22;1101;51.056;7.262;2023-06-26T13:36:56;27.10;62.10
2190;DHT22;1101;51.056;7.262;2023-06-26T13:39:27;27.10;62.00
2190;DHT22;1101;51.056;7.262;2023-06-26T13:41:58;27.00;61.50
2190;DHT22;1101;51.056;7.262;2023-06-26T13:44:29;27.10;61.70
2190;DHT22;1101;51.056;7.262;2023-06-26T13:47:13;27.20;61.50
2190;DHT22;1101;51.056;7.262;2023-06-26T13:49:41;27.30;61.40
2190;DHT22;1101;51.056;7.262;2023-06-26T13:52:09;27.30;60.40
2190;DHT22;1101;51.056;7.262;2023-06-26T13:54:37;27.10;60.20
2190;DHT22;1101;51.056;7.262;2023-06-26T13:57:07;26.90;60.00
2190;DHT22;1101;51.056;7.262;2023-06-26T13:59:37;26.70;59.80
2190;DHT22;1101;51.056;7.262;2023-06-26T14:02:08;26.60;60.70
2190;DHT22;1101;51.056;7.262;2023-06-26T14:04:36;26.60;60.40
2190;DHT22;1101;51.056;7.262;2023-06-26T14:07:05;26.70;60.10
2190;DHT22;1101;51.056;7.262;2023-06-26T14:09:34;26.70;59.60
2190;DHT22;1101;51.056;7.262;2023-06-26T14:12:02;26.50;59.90
2190;DHT22;1101;51.056;7.262;2023-06-26T14:14:30;26.40;59.50
2190;DHT22;1101;51.056;7.262;2023-06-26T14:17:00;26.30;59.70
2190;DHT22;1101;51.056;7.262;2023-06-26T14:19:28;26.30;60.50
2190;DHT22;1101;51.056;7.262;2023-06-26T14:21:57;26.50;60.80
2190;DHT22;1101;51.056;7.262;2023-06-26T14:24:26;26.70;59.30
2190;DHT22;1101;51.056;7.262;2023-06-26T14:26:54;26.60;59.30
2190;DHT22;1101;51.056;7.262;2023-06-26T14:29:21;26.50;59.50
2190;DHT22;1101;51.056;7.262;2023-06-26T14:31:50;26.50;59.50
2190;DHT22;1101;51.056;7.262;2023-06-26T14:34:22;26.50;59.50
2190;DHT22;1101;51.056;7.262;2023-06-26T14:36:50;26.40;58.70
2190;DHT22;1101;51.056;7.262;2023-06-26T14:39:18;26.40;59.10
2190;DHT22;1101;51.056;7.262;2023-06-26T14:41:47;26.30;57.50
2190;DHT22;1101;51.056;7.262;2023-06-26T14:44:15;26.10;59.20
2190;DHT22;1101;51.056;7.262;2023-06-26T14:46:43;26.10;59.20
2190;DHT22;1101;51.056;7.262;2023-06-26T14:49:11;26.10;59.70
2190;DHT22;1101;51.056;7.262;2023-06-26T14:51:41;26.20;59.60
2190;DHT22;1101;51.056;7.262;2023-06-26T14:54:09;26.30;59.10
2190;DHT22;1101;51.056;7.262;2023-06-26T14:56:37;26.40;58.70
2190;DHT22;1101;51.056;7.262;2023-06-26T14:59:05;26.40;58.80
2190;DHT22;1101;51.056;7.262;2023-06-26T15:01:33;26.40;59.20
2190;DHT22;1101;51.056;7.262;2023-06-26T15:04:01;26.40;59.20
2190;DHT22;1101;51.056;7.262;2023-06-26T15:06:30;26.40;58.50
2190;DHT22;1101;51.056;7.262;2023-06-26T15:08:59;26.40;58.30
2190;DHT22;1101;51.056;7.262;2023-06-26T15:11:26;26.40;58.70
2190;DHT22;1101;51.056;7.262;2023-06-26T15:13:55;26.30;58.60
2190;DHT22;1101;51.056;7.262;2023-06-26T15:16:23;26.20;58.30
2190;DHT22;1101;51.056;7.262;2023-06-26T15:18:51;26.10;58.40
2190;DHT22;1101;51.056;7.262;2023-06-26T15:21:19;25.90;58.60
2190;DHT22;1101;51.056;7.262;2023-06-26T15:23:47;26.00;58.70
2190;DHT22;1101;51.056;7.262;2023-06-26T15:26:16;26.10;58.80
2190;DHT22;1101;51.056;7.262;2023-06-26T15:28:44;26.10;58.50
2190;DHT22;1101;51.056;7.262;2023-06-26T15:31:12;26.10;57.90
2190;DHT22;1101;51.056;7.262;2023-06-26T15:33:40;26.10;58.30
2190;DHT22;1101;51.056;7.262;2023-06-26T15:36:08;26.10;58.30
2190;DHT22;1101;51.056;7.262;2023-06-26T15:38:37;26.00;57.80
2190;DHT22;1101;51.056;7.262;2023-06-26T15:41:06;26.00;58.20
2190;DHT22;1101;51.056;7.262;2023-06-26T15:43:35;26.00;58.30
2190;DHT22;1101;51.056;7.262;2023-06-26T15:46:03;26.00;58.10
2190;DHT22;1101;51.056;7.262;2023-06-26T15:48:32;26.10;58.10
2190;DHT22;1101;51.056;7.262;2023-06-26T15:51:01;26.10;58.00
2190;DHT22;1101;51.056;7.262;2023-06-26T15:53:34;26.00;58.00
2190;DHT22;1101;51.056;7.262;2023-06-26T15:56:07;26.00;57.70
2190;DHT22;1101;51.056;7.262;2023-06-26T15:58:37;26.00;58.10
2190;DHT22;1101;51.056;7.262;2023-06-26T16:01:09;26.00;57.10
2190;DHT22;1101;51.056;7.262;2023-06-26T16:03:38;25.80;57.60
2190;DHT22;1101;51.056;7.262;2023-06-26T16:06:06;25.80;57.70
2190;DHT22;1101;51.056;7.262;2023-06-26T16:08:35;25.80;57.20
2190;DHT22;1101;51.056;7.262;2023-06-26T16:11:03;25.80;57.60
2190;DHT22;1101;51.056;7.262;2023-06-26T16:13:32;25.80;56.60
2190;DHT22;1101;51.056;7.262;2023-06-26T16:16:01;25.70;57.00